sensor_id;sensor_type;location;lat;lon;timestamp;temperature;humidity
5930;DHT22;2990;48.746;9.236;2023-10-09T00:00:54;15.80;1.00
5930;DHT22;2990;48.746;9.236;2023-10-09T00:03:29;15.80;1.00
5930;DHT22;2990;48.746;9.236;2023-10-09T00:05:55;15.70;1.00
5930;DHT22;2990;48.746;9.236;2023-10-09T00:08:21;15.70;1.00
5930;DHT22;2990;48.746;9.236;2023-10-09T00:10:51;15.70;1.00
5930;DHT22;2990;48.746;9.236;2023-10-09T00:13:21;15.60;1.00
5930;DHT22;2990;48.746;9.236;2023-10-09T00:15:54;15.60;1.00
5930;DHT22;2990;48.746;9.236;2023-10-09T00:18:24;15.50;1.00
5930;DHT22;2990;48.746;9.236;2023-10-09T00:20:54;15.40;1.00
5930;DHT22;2990;48.746;9.236;2023-10-09T00:23:20;15.40;1.00
5930;DHT22;2990;48.746;9.236;2023-10-09T00:25:53;15.30;19.60
5930;DHT22;2990;48.746;9.236;2023-10-09T00:28:38;15.20;99.90
5930;DHT22;2990;48.746;9.236;2023-10-09T00:31:08;15.20;99.90
5930;DHT22;2990;48.746;9.236;2023-10-09T00:33:42;15.20;99.90
5930;DHT22;2990;48.746;9.236;2023-10-09T00:36:08;15.10;99.90
5930;DHT22;2990;48.746;9.236;2023-10-09T00:38:35;15.10;99.90
5930;DHT22;2990;48.746;9.236;2023-10-09T00:41:01;15.10;1.00
5930;DHT22;2990;48.746;9.236;2023-10-09T00:43:33;15.00;1.00
5930;DHT22;2990;48.746;9.236;2023-10-09T00:46:02;14.90;23.70
5930;DHT22;2990;48.746;9.236;2023-10-09T00:48:37;14.80;99.90
5930;DHT22;2990;48.746;9.236;2023-10-09T00:51:05;14.80;99.90
5930;DHT22;2990;48.746;9.236;2023-10-09T00:53:43;14.80;99.90
5930;DHT22;2990;48.746;9.236;2023-10-09T00:56:09;14.70;99.90
5930;DHT22;2990;48.746;9.236;2023-10-09T00:59:04;14.70;99.90
5930;DHT22;2990;48.746;9.236;2023-10-09T01:01:41;14.70;99.90
5930;DHT22;2990;48.746;9.236;2023-10-09T01:04:11;14.70;1.00
5930;DHT22;2990;48.746;9.236;2023-10-09T01:06:45;14.70;1.00
5930;DHT22;2990;48.746;9.236;2023-10-09T01:09:13;14.80;1.00
5930;DHT22;2990;48.746;9.236;2023-10-09T01:11:40;14.90;99.90
5930;DHT22;2990;48.746;9.236;2023-10-09T01:14:30;14.90;99.90
5930;DHT22;2990;48.746;9.236;2023-10-09T01:16:57;15.00;99.90
5930;DHT22;2990;48.746;9.236;2023-10-09T01:19:23;15.10;37.60
5930;DHT22;2990;48.746;9.236;2023-10-09T01:21:56;15.10;1.00
5930;DHT22;2990;48.746;9.236;2023-10-09T01:24:29;15.20;1.00
5930;DHT22;2990;48.746;9.236;2023-10-09T01:26:57;15.30;1.00
5930;DHT22;2990;48.746;9.236;2023-10-09T01:29:25;15.30;1.00
5930;DHT22;2990;48.746;9.236;2023-10-09T01:31:54;15.50;1.00
5930;DHT22;2990;48.746;9.236;2023-10-09T01:34:38;15.60;1.00
5930;DHT22;2990;48.746;9.236;2023-10-09T01:37:07;15.70;1.00
5930;DHT22;2990;48.746;9.236;2023-10-09T01:39:49;15.80;1.00
5930;DHT22;2990;48.746;9.236;2023-10-09T01:42:16;15.90;1.00
5930;DHT22;2990;48.746;9.236;2023-10-09T01:45:02;16.00;1.00
5930;DHT22;2990;48.746;9.236;2023-10-09T01:47:38;16.00;1.00
5930;DHT22;2990;48.746;9.236;2023-10-09T01:50:07;16.10;1.00
5930;DHT22;2990;48.746;9.236;2023-10-09T01:52:52;16.10;1.00
5930;DHT22;2990;48.746;9.236;2023-10-09T01:55:18;16.10;1.00
5930;DHT22;2990;48.746;9.236;2023-10-09T01:58:04;16.20;1.00
5930;DHT22;2990;48.746;9.236;2023-10-09T02:00:48;16.20;1.00
5930;DHT22;2990;48.746;9.236;2023-10-09T02:03:19;16.20;1.00
5930;DHT22;2990;48.746;9.236;2023-10-09T02:05:48;16.20;1.00
5930;DHT22;2990;48.746;9.236;2023-10-09T02:08:15;16.20;1.00
5930;DHT22;2990;48.746;9.236;2023-10-09T02:10:47;16.20;1.00
5930;DHT22;2990;48.746;9.236;2023-10-09T02:13:14;16.20;1.00
5930;DHT22;2990;48.746;9.236;2023-10-09T02:15:43;16.20;1.00
5930;DHT22;2990;48.746;9.236;2023-10-09T02:18:09;16.20;1.00
5930;DHT22;2990;48.746;9.236;2023-10-09T02:20:52;16.30;1.00
5930;DHT22;2990;48.746;9.236;2023-10-09T02:23:30;16.30;1.00
5930;DHT22;2990;48.746;9.236;2023-10-09T02:26:16;16.30;1.00
5930;DHT22;2990;48.746;9.236;2023-10-09T02:28:53;16.30;1.00
5930;DHT22;2990;48.746;9.236;2023-10-09T02:31:39;16.20;1.00
5930;DHT22;2990;48.746;9.236;2023-10-09T02:34:17;16.20;1.00
5930;DHT22;2990;48.746;9.236;2023-10-09T02:36:47;16.20;1.00
5930;DHT22;2990;48.746;9.236;2023-10-09T02:39:26;16.20;1.00
5930;DHT22;2990;48.746;9.236;2023-10-09T02:41:58;16.10;1.00
5930;DHT22;2990;48.746;9.236;2023-10-09T02:44:27;16.10;1.00
5930;DHT22;2990;48.746;9.236;2023-10-09T02:46:57;16.10;1.00
5930;DHT22;2990;48.746;9.236;2023-10-09T02:49:24;16.00;1.00
5930;DHT22;2990;48.746;9.236;2023-10-09T02:51:50;16.10;1.00
5930;DHT22;2990;48.746;9.236;2023-10-09T02:54:19;16.10;1.00
5930;DHT22;2990;48.746;9.236;2023-10-09T02:56:48;16.10;1.00
5930;DHT22;2990;48.746;9.236;2023-10-09T02:59:21;16.10;1.00
5930;DHT22;2990;48.746;9.236;2023-10-09T03:01:47;16.10;1.00
5930;DHT22;2990;48.746;9.236;2023-10-09T03:04:13;16.10;1.00
5930;DHT22;2990;48.746;9.236;2023-10-09T03:06:40;16.10;1.00
5930;DHT22;2990;48.746;9.236;2023-10-09T03:09:21;16.10;1.00
5930;DHT22;2990;48.746;9.236;2023-10-09T03:11:53;16.10;1.00
5930;DHT22;2990;48.746;9.236;2023-10-09T03:14:20;16.10;1.00
5930;DHT22;2990;48.746;9.236;2023-10-09T03:16:49;16.10;1.00
5930;DHT22;2990;48.746;9.236;2023-10-09T03:19:15;16.10;1.00
5930;DHT22;2990;48.746;9.236;2023-10-09T03:21:40;16.00;1.00
5930;DHT22;2990;48.746;9.236;2023-10-09T03:24:07;16.00;1.00
5930;DHT22;2990;48.746;9.236;2023-10-09T03:26:33;16.00;1.00
5930;DHT22;2990;48.746;9.236;2023-10-09T03:28:59;16.00;1.00
5930;DHT22;2990;48.746;9.236;2023-10-09T03:31:32;16.00;1.00
5930;DHT22;2990;48.746;9.236;2023-10-09T03:34:01;15.90;1.00
5930;DHT22;2990;48.746;9.236;2023-10-09T03:36:28;15.90;1.00
5930;DHT22;2990;48.746;9.236;2023-10-09T03:38:54;15.90;1.00
5930;DHT22;2990;48.746;9.236;2023-10-09T03:41:23;15.80;1.00
5930;DHT22;2990;48.746;9.236;2023-10-09T03:43:51;15.80;1.00
5930;DHT22;2990;48.746;9.236;2023-10-09T03:46:17;15.70;1.00
5930;DHT22;2990;48.746;9.236;2023-10-09T03:48:47;15.70;1.00
5930;DHT22;2990;48.746;9.236;2023-10-09T03:51:13;15.70;1.00
5930;DHT22;2990;48.746;9.236;2023-10-09T03:53:49;15.60;1.00
5930;DHT22;2990;48.746;9.236;2023-10-09T03:56:16;15.60;1.00
5930;DHT22;2990;48.746;9.236;2023-10-09T03:58:44;15.50;1.00
5930;DHT22;2990;48.746;9.236;2023-10-09T04:01:11;15.50;1.00
5930;DHT22;2990;48.746;9.236;2023-10-09T04:03:48;15.50;1.00
5930;DHT22;2990;48.746;9.236;2023-10-09T04:06:14;15.50;1.00
5930;DHT22;2990;48.746;9.236;2023-10-09T04:08:43;15.50;1.00
5930;DHT22;2990;48.746;9.236;2023-10-09T04:11:14;15.50;1.00
5930;DHT22;2990;48.746;9.236;2023-10-09T04:13:44;15.50;1.00
5930;DHT22;2990;48.746;9.236;2023-10-09T04:16:12;15.50;1.00
5930;DHT22;2990;48.746;9.236;2023-10-09T04:18:59;15.40;1.00
5930;DHT22;2990;48.746;9.236;2023-10-09T04:21:26;15.30;1.00
5930;DHT22;2990;48.746;9.236;2023-10-09T04:24:06;15.50;1.00
5930;DHT22;2990;48.746;9.236;2023-10-09T04:26:45;15.40;1.00
5930;DHT22;2990;48.746;9.236;2023-10-09T04:29:12;15.40;1.00
5930;DHT22;2990;48.746;9.236;2023-10-09T04:31:54;15.40;1.00
5930;DHT22;2990;48.746;9.236;2023-10-09T04:34:23;15.30;1.00
5930;DHT22;2990;48.746;9.236;2023-10-09T04:36:52;15.30;1.00
5930;DHT22;2990;48.746;9.236;2023-10-09T04:39:29;15.30;1.00
5930;DHT22;2990;48.746;9.236;2023-10-09T04:41:56;15.20;1.00
5930;DHT22;2990;48.746;9.236;2023-10-09T04:44:45;15.20;1.00
5930;DHT22;2990;48.746;9.236;2023-10-09T04:47:30;15.20;1.00
5930;DHT22;2990;48.746;9.236;2023-10-09T04:50:11;15.20;1.00
5930;DHT22;2990;48.746;9.236;2023-10-09T04:52:40;15.20;1.00
5930;DHT22;2990;48.746;9.236;2023-10-09T04:55:07;15.20;1.00
5930;DHT22;2990;48.746;9.236;2023-10-09T04:57:40;15.20;1.00
5930;DHT22;2990;48.746;9.236;2023-10-09T05:00:15;15.20;1.00
5930;DHT22;2990;48.746;9.236;2023-10-09T05:03:00;15.20;1.00
5930;DHT22;2990;48.746;9.236;2023-10-09T05:05:36;15.20;1.00
5930;DHT22;2990;48.746;9.236;2023-10-09T05:10:53;15.20;1.00
5930;DHT22;2990;48.746;9.236;2023-10-09T05:13:35;15.20;1.00
5930;DHT22;2990;48.746;9.236;2023-10-09T05:16:04;15.20;1.00
5930;DHT22;2990;48.746;9.236;2023-10-09T05:18:29;15.20;1.00
5930;DHT22;2990;48.746;9.236;2023-10-09T05:21:02;15.20;1.00
5930;DHT22;2990;48.746;9.236;2023-10-09T05:23:48;15.20;1.00
5930;DHT22;2990;48.746;9.236;2023-10-09T05:26:44;15.20;1.00
5930;DHT22;2990;48.746;9.236;2023-10-09T05:29:23;15.30;1.00
5930;DHT22;2990;48.746;9.236;2023-10-09T05:31:59;15.30;1.00
5930;DHT22;2990;48.746;9.236;2023-10-09T05:34:41;15.30;1.00
5930;DHT22;2990;48.746;9.236;2023-10-09T05:37:33;15.30;1.00
5930;DHT22;2990;48.746;9.236;2023-10-09T05:40:03;15.30;1.00
5930;DHT22;2990;48.746;9.236;2023-10-09T05:42:41;15.30;1.00
5930;DHT22;2990;48.746;9.236;2023-10-09T05:45:08;15.30;1.00
5930;DHT22;2990;48.746;9.236;2023-10-09T05:47:48;15.30;1.00
5930;DHT22;2990;48.746;9.236;2023-10-09T05:50:19;15.30;1.00
5930;DHT22;2990;48.746;9.236;2023-10-09T05:52:48;15.30;1.00
5930;DHT22;2990;48.746;9.236;2023-10-09T05:55:16;15.30;1.00
5930;DHT22;2990;48.746;9.236;2023-10-09T05:58:05;15.40;1.00
5930;DHT22;2990;48.746;9.236;2023-10-09T06:00:33;15.30;1.00
5930;DHT22;2990;48.746;9.236;2023-10-09T06:03:17;15.30;1.00
5930;DHT22;2990;48.746;9.236;2023-10-09T06:05:50;15.40;1.00
5930;DHT22;2990;48.746;9.236;2023-10-09T06:08:22;15.40;1.00
5930;DHT22;2990;48.746;9.236;2023-10-09T06:11:10;15.40;1.00
5930;DHT22;2990;48.746;9.236;2023-10-09T06:13:54;15.40;1.00
5930;DHT22;2990;48.746;9.236;2023-10-09T06:16:36;15.50;1.00
5930;DHT22;2990;48.746;9.236;2023-10-09T06:19:05;15.50;1.00
5930;DHT22;2990;48.746;9.236;2023-10-09T06:21:36;15.50;1.00
5930;DHT22;2990;48.746;9.236;2023-10-09T06:24:25;15.50;1.00
5930;DHT22;2990;48.746;9.236;2023-10-09T06:27:07;15.60;1.00
5930;DHT22;2990;48.746;9.236;2023-10-09T06:29:33;15.60;1.00
5930;DHT22;2990;48.746;9.236;2023-10-09T06:32:06;15.60;1.00
5930;DHT22;2990;48.746;9.236;2023-10-09T06:34:45;15.60;1.00
5930;DHT22;2990;48.746;9.236;2023-10-09T06:37:14;15.60;1.00
5930;DHT22;2990;48.746;9.236;2023-10-09T06:40:00;15.60;1.00
5930;DHT22;2990;48.746;9.236;2023-10-09T06:42:26;15.70;1.00
5930;DHT22;2990;48.746;9.236;2023-10-09T06:45:04;15.70;1.00
5930;DHT22;2990;48.746;9.236;2023-10-09T06:47:33;15.70;1.00
5930;DHT22;2990;48.746;9.236;2023-10-09T06:50:11;15.80;1.00
5930;DHT22;2990;48.746;9.236;2023-10-09T06:52:45;15.80;1.00
5930;DHT22;2990;48.746;9.236;2023-10-09T06:55:36;15.80;1.00
5930;DHT22;2990;48.746;9.236;2023-10-09T06:58:15;15.90;1.00
5930;DHT22;2990;48.746;9.236;2023-10-09T07:00:51;16.00;1.00
5930;DHT22;2990;48.746;9.236;2023-10-09T07:03:20;16.00;1.00
5930;DHT22;2990;48.746;9.236;2023-10-09T07:06:06;16.10;1.00
5930;DHT22;2990;48.746;9.236;2023-10-09T07:08:36;16.10;1.00
5930;DHT22;2990;48.746;9.236;2023-10-09T07:11:10;16.20;1.00
5930;DHT22;2990;48.746;9.236;2023-10-09T07:14:14;16.20;1.00
5930;DHT22;2990;48.746;9.236;2023-10-09T07:17:05;16.30;1.00
5930;DHT22;2990;48.746;9.236;2023-10-09T07:19:51;16.40;1.00
5930;DHT22;2990;48.746;9.236;2023-10-09T07:22:17;16.40;1.00
5930;DHT22;2990;48.746;9.236;2023-10-09T07:24:45;16.50;1.00
5930;DHT22;2990;48.746;9.236;2023-10-09T07:27:20;16.60;1.00
5930;DHT22;2990;48.746;9.236;2023-10-09T07:30:07;16.60;1.00
5930;DHT22;2990;48.746;9.236;2023-10-09T07:32:53;16.70;1.00
5930;DHT22;2990;48.746;9.236;2023-10-09T07:35:20;16.70;1.00
5930;DHT22;2990;48.746;9.236;2023-10-09T07:38:23;16.90;1.00
5930;DHT22;2990;48.746;9.236;2023-10-09T07:40:54;16.90;1.00
5930;DHT22;2990;48.746;9.236;2023-10-09T07:43:36;16.90;1.00
5930;DHT22;2990;48.746;9.236;2023-10-09T07:46:06;16.90;1.00
5930;DHT22;2990;48.746;9.236;2023-10-09T07:48:50;17.00;99.90
5930;DHT22;2990;48.746;9.236;2023-10-09T07:51:23;17.00;99.90
5930;DHT22;2990;48.746;9.236;2023-10-09T07:53:54;17.10;99.90
5930;DHT22;2990;48.746;9.236;2023-10-09T07:56:30;17.20;99.90
5930;DHT22;2990;48.746;9.236;2023-10-09T07:59:04;17.20;99.90
5930;DHT22;2990;48.746;9.236;2023-10-09T08:01:49;17.30;99.90
5930;DHT22;2990;48.746;9.236;2023-10-09T08:04:21;17.30;99.90
5930;DHT22;2990;48.746;9.236;2023-10-09T08:07:10;17.40;99.90
5930;DHT22;2990;48.746;9.236;2023-10-09T08:09:45;17.50;99.90
5930;DHT22;2990;48.746;9.236;2023-10-09T08:12:14;17.60;99.90
5930;DHT22;2990;48.746;9.236;2023-10-09T08:15:01;17.70;99.90
5930;DHT22;2990;48.746;9.236;2023-10-09T08:17:55;17.70;99.90
5930;DHT22;2990;48.746;9.236;2023-10-09T08:20:39;17.80;99.90
5930;DHT22;2990;48.746;9.236;2023-10-09T08:23:23;17.90;99.90
5930;DHT22;2990;48.746;9.236;2023-10-09T08:26:05;18.00;99.90
5930;DHT22;2990;48.746;9.236;2023-10-09T08:28:44;18.00;99.90
5930;DHT22;2990;48.746;9.236;2023-10-09T08:31:13;18.20;99.90
5930;DHT22;2990;48.746;9.236;2023-10-09T08:34:02;18.30;99.90
5930;DHT22;2990;48.746;9.236;2023-10-09T08:36:29;18.40;99.90
5930;DHT22;2990;48.746;9.236;2023-10-09T08:39:02;18.50;99.90
5930;DHT22;2990;48.746;9.236;2023-10-09T08:41:40;18.60;99.90
5930;DHT22;2990;48.746;9.236;2023-10-09T08:44:07;18.70;99.90
5930;DHT22;2990;48.746;9.236;2023-10-09T08:46:32;18.70;99.90
5930;DHT22;2990;48.746;9.236;2023-10-09T08:48:59;18.80;99.90
5930;DHT22;2990;48.746;9.236;2023-10-09T08:51:26;18.80;99.90
5930;DHT22;2990;48.746;9.236;2023-10-09T08:53:52;18.80;99.90
5930;DHT22;2990;48.746;9.236;2023-10-09T08:56:19;18.80;99.90
5930;DHT22;2990;48.746;9.236;2023-10-09T08:58:55;18.90;99.90
5930;DHT22;2990;48.746;9.236;2023-10-09T09:01:21;18.80;99.90
5930;DHT22;2990;48.746;9.236;2023-10-09T09:03:49;18.80;99.90
5930;DHT22;2990;48.746;9.236;2023-10-09T09:06:17;18.80;99.90
5930;DHT22;2990;48.746;9.236;2023-10-09T09:08:44;18.90;99.90
5930;DHT22;2990;48.746;9.236;2023-10-09T09:11:17;18.90;99.90
5930;DHT22;2990;48.746;9.236;2023-10-09T09:14:04;18.90;99.90
5930;DHT22;2990;48.746;9.236;2023-10-09T09:16:34;18.90;99.90
5930;DHT22;2990;48.746;9.236;2023-10-09T09:19:04;19.00;99.90
5930;DHT22;2990;48.746;9.236;2023-10-09T09:21:37;19.00;99.90
5930;DHT22;2990;48.746;9.236;2023-10-09T09:24:07;19.10;99.90
5930;DHT22;2990;48.746;9.236;2023-10-09T09:27:03;19.20;99.90
5930;DHT22;2990;48.746;9.236;2023-10-09T09:32:08;19.30;99.90
5930;DHT22;2990;48.746;9.236;2023-10-09T09:34:46;19.40;99.90
5930;DHT22;2990;48.746;9.236;2023-10-09T09:37:19;19.50;99.90
5930;DHT22;2990;48.746;9.236;2023-10-09T09:39:46;19.60;99.90
5930;DHT22;2990;48.746;9.236;2023-10-09T09:42:15;19.70;99.90
5930;DHT22;2990;48.746;9.236;2023-10-09T09:44:51;19.80;99.90
5930;DHT22;2990;48.746;9.236;2023-10-09T09:47:17;19.90;99.90
5930;DHT22;2990;48.746;9.236;2023-10-09T09:50:08;20.00;99.90
5930;DHT22;2990;48.746;9.236;2023-10-09T09:52:38;20.00;99.90
5930;DHT22;2990;48.746;9.236;2023-10-09T09:55:09;20.00;99.90
5930;DHT22;2990;48.746;9.236;2023-10-09T09:57:44;20.00;99.90
5930;DHT22;2990;48.746;9.236;2023-10-09T10:00:12;20.10;99.90
5930;DHT22;2990;48.746;9.236;2023-10-09T10:03:27;20.10;99.90
5930;DHT22;2990;48.746;9.236;2023-10-09T10:05:55;20.20;99.90
5930;DHT22;2990;48.746;9.236;2023-10-09T10:08:23;20.20;99.90
5930;DHT22;2990;48.746;9.236;2023-10-09T10:10:58;20.20;99.90
5930;DHT22;2990;48.746;9.236;2023-10-09T10:16:11;20.30;99.90
5930;DHT22;2990;48.746;9.236;2023-10-09T10:19:01;20.40;99.90
5930;DHT22;2990;48.746;9.236;2023-10-09T10:21:49;20.50;99.90
5930;DHT22;2990;48.746;9.236;2023-10-09T10:29:35;20.70;99.90
5930;DHT22;2990;48.746;9.236;2023-10-09T10:32:04;20.80;99.90
5930;DHT22;2990;48.746;9.236;2023-10-09T10:34:52;20.90;99.90
5930;DHT22;2990;48.746;9.236;2023-10-09T10:37:38;21.00;99.90
5930;DHT22;2990;48.746;9.236;2023-10-09T10:40:25;21.10;99.90
5930;DHT22;2990;48.746;9.236;2023-10-09T10:43:16;21.10;99.90
5930;DHT22;2990;48.746;9.236;2023-10-09T10:46:02;21.20;99.90
5930;DHT22;2990;48.746;9.236;2023-10-09T10:48:36;21.20;99.90
5930;DHT22;2990;48.746;9.236;2023-10-09T10:51:05;21.20;99.90
5930;DHT22;2990;48.746;9.236;2023-10-09T10:53:32;21.20;99.90
5930;DHT22;2990;48.746;9.236;2023-10-09T10:56:18;21.20;99.90
5930;DHT22;2990;48.746;9.236;2023-10-09T10:58:54;21.20;99.90
5930;DHT22;2990;48.746;9.236;2023-10-09T11:01:30;21.20;99.90
5930;DHT22;2990;48.746;9.236;2023-10-09T11:04:16;21.20;99.90
5930;DHT22;2990;48.746;9.236;2023-10-09T11:06:53;21.20;99.90
5930;DHT22;2990;48.746;9.236;2023-10-09T11:09:26;21.20;99.90
5930;DHT22;2990;48.746;9.236;2023-10-09T11:12:04;21.20;99.90
5930;DHT22;2990;48.746;9.236;2023-10-09T11:14:48;21.20;99.90
5930;DHT22;2990;48.746;9.236;2023-10-09T11:17:35;21.30;99.90
5930;DHT22;2990;48.746;9.236;2023-10-09T11:20:03;21.40;99.90
5930;DHT22;2990;48.746;9.236;2023-10-09T11:22:52;21.40;99.90
5930;DHT22;2990;48.746;9.236;2023-10-09T11:25:37;21.60;99.90
5930;DHT22;2990;48.746;9.236;2023-10-09T11:28:17;21.80;99.90
5930;DHT22;2990;48.746;9.236;2023-10-09T11:31:05;22.00;99.90
5930;DHT22;2990;48.746;9.236;2023-10-09T11:33:45;22.20;99.90
5930;DHT22;2990;48.746;9.236;2023-10-09T11:36:11;22.30;99.90
5930;DHT22;2990;48.746;9.236;2023-10-09T11:38:37;22.40;99.90
5930;DHT22;2990;48.746;9.236;2023-10-09T11:41:16;22.30;99.90
5930;DHT22;2990;48.746;9.236;2023-10-09T11:43:49;22.20;99.90
5930;DHT22;2990;48.746;9.236;2023-10-09T11:46:20;22.10;99.90
5930;DHT22;2990;48.746;9.236;2023-10-09T11:49:08;22.00;99.90
5930;DHT22;2990;48.746;9.236;2023-10-09T11:51:46;21.80;99.90
5930;DHT22;2990;48.746;9.236;2023-10-09T11:54:31;21.80;99.90
5930;DHT22;2990;48.746;9.236;2023-10-09T11:56:58;21.70;99.90
5930;DHT22;2990;48.746;9.236;2023-10-09T11:59:27;21.60;99.90
5930;DHT22;2990;48.746;9.236;2023-10-09T12:01:53;21.50;99.90
5930;DHT22;2990;48.746;9.236;2023-10-09T12:04:20;21.50;99.90
5930;DHT22;2990;48.746;9.236;2023-10-09T12:06:45;21.60;99.90
5930;DHT22;2990;48.746;9.236;2023-10-09T12:09:11;21.60;99.90
5930;DHT22;2990;48.746;9.236;2023-10-09T12:11:49;21.70;99.90
5930;DHT22;2990;48.746;9.236;2023-10-09T12:14:18;21.70;99.90
5930;DHT22;2990;48.746;9.236;2023-10-09T12:16:49;21.70;99.90
5930;DHT22;2990;48.746;9.236;2023-10-09T12:19:15;21.80;99.90
5930;DHT22;2990;48.746;9.236;2023-10-09T12:21:41;21.80;99.90
5930;DHT22;2990;48.746;9.236;2023-10-09T12:24:08;22.00;99.90
5930;DHT22;2990;48.746;9.236;2023-10-09T12:26:38;22.10;99.90
5930;DHT22;2990;48.746;9.236;2023-10-09T12:29:05;22.40;99.90
5930;DHT22;2990;48.746;9.236;2023-10-09T12:31:36;22.60;99.90
5930;DHT22;2990;48.746;9.236;2023-10-09T12:34:02;22.80;99.90
5930;DHT22;2990;48.746;9.236;2023-10-09T12:36:28;22.90;99.90
5930;DHT22;2990;48.746;9.236;2023-10-09T12:38:53;23.10;99.90
5930;DHT22;2990;48.746;9.236;2023-10-09T12:41:19;23.30;99.90
5930;DHT22;2990;48.746;9.236;2023-10-09T12:43:51;23.50;99.90
5930;DHT22;2990;48.746;9.236;2023-10-09T12:46:18;23.60;99.90
5930;DHT22;2990;48.746;9.236;2023-10-09T12:48:48;23.70;99.90
5930;DHT22;2990;48.746;9.236;2023-10-09T12:51:15;23.80;91.40
5930;DHT22;2990;48.746;9.236;2023-10-09T12:53:44;23.80;98.00
5930;DHT22;2990;48.746;9.236;2023-10-09T12:56:11;23.80;67.40
5930;DHT22;2990;48.746;9.236;2023-10-09T12:58:37;23.80;76.50
5930;DHT22;2990;48.746;9.236;2023-10-09T13:01:04;23.80;99.90
5930;DHT22;2990;48.746;9.236;2023-10-09T13:03:39;23.80;95.40
5930;DHT22;2990;48.746;9.236;2023-10-09T13:06:05;23.70;81.30
5930;DHT22;2990;48.746;9.236;2023-10-09T13:08:37;23.60;98.00
5930;DHT22;2990;48.746;9.236;2023-10-09T13:11:10;23.50;95.60
5930;DHT22;2990;48.746;9.236;2023-10-09T13:13:40;23.40;50.70
5930;DHT22;2990;48.746;9.236;2023-10-09T13:16:07;23.30;31.10
5930;DHT22;2990;48.746;9.236;2023-10-09T13:18:34;23.30;1.00
5930;DHT22;2990;48.746;9.236;2023-10-09T13:21:00;23.40;12.50
5930;DHT22;2990;48.746;9.236;2023-10-09T13:23:30;23.50;1.00
5930;DHT22;2990;48.746;9.236;2023-10-09T13:26:06;23.50;1.00
5930;DHT22;2990;48.746;9.236;2023-10-09T13:28:48;23.60;1.00
5930;DHT22;2990;48.746;9.236;2023-10-09T13:31:14;23.70;1.00
5930;DHT22;2990;48.746;9.236;2023-10-09T13:33:41;23.70;1.00
5930;DHT22;2990;48.746;9.236;2023-10-09T13:36:11;23.80;1.00
5930;DHT22;2990;48.746;9.236;2023-10-09T13:42:14;24.30;1.00
5930;DHT22;2990;48.746;9.236;2023-10-09T13:44:41;24.40;1.00
5930;DHT22;2990;48.746;9.236;2023-10-09T13:47:07;24.50;1.00
5930;DHT22;2990;48.746;9.236;2023-10-09T13:49:47;24.70;1.00
5930;DHT22;2990;48.746;9.236;2023-10-09T13:52:16;24.70;1.00
5930;DHT22;2990;48.746;9.236;2023-10-09T13:57:14;24.90;1.00
5930;DHT22;2990;48.746;9.236;2023-10-09T13:59:40;25.20;1.00
5930;DHT22;2990;48.746;9.236;2023-10-09T14:02:17;25.30;1.00
5930;DHT22;2990;48.746;9.236;2023-10-09T14:04:45;25.40;1.00
5930;DHT22;2990;48.746;9.236;2023-10-09T14:07:12;25.50;1.00
5930;DHT22;2990;48.746;9.236;2023-10-09T14:09:42;25.50;1.00
5930;DHT22;2990;48.746;9.236;2023-10-09T14:12:21;25.40;1.00
5930;DHT22;2990;48.746;9.236;2023-10-09T14:14:47;25.40;1.00
5930;DHT22;2990;48.746;9.236;2023-10-09T14:19:47;25.40;1.00
5930;DHT22;2990;48.746;9.236;2023-10-09T14:22:16;25.30;1.00
5930;DHT22;2990;48.746;9.236;2023-10-09T14:24:42;25.10;1.00
5930;DHT22;2990;48.746;9.236;2023-10-09T14:27:11;25.00;1.00
5930;DHT22;2990;48.746;9.236;2023-10-09T14:29:51;24.90;1.00
5930;DHT22;2990;48.746;9.236;2023-10-09T14:32:21;24.70;1.00
5930;DHT22;2990;48.746;9.236;2023-10-09T14:34:51;24.60;1.00
5930;DHT22;2990;48.746;9.236;2023-10-09T14:37:20;24.50;1.00
5930;DHT22;2990;48.746;9.236;2023-10-09T14:39:48;24.50;1.00
5930;DHT22;2990;48.746;9.236;2023-10-09T14:42:18;24.40;1.00
5930;DHT22;2990;48.746;9.236;2023-10-09T14:44:46;24.30;1.00
5930;DHT22;2990;48.746;9.236;2023-10-09T14:47:13;24.30;1.00
5930;DHT22;2990;48.746;9.236;2023-10-09T14:49:39;24.20;1.00
5930;DHT22;2990;48.746;9.236;2023-10-09T14:52:12;24.20;1.00
5930;DHT22;2990;48.746;9.236;2023-10-09T14:54:42;24.00;1.00
5930;DHT22;2990;48.746;9.236;2023-10-09T14:57:08;23.90;1.00
5930;DHT22;2990;48.746;9.236;2023-10-09T14:59:37;23.90;1.00
5930;DHT22;2990;48.746;9.236;2023-10-09T15:02:02;23.80;1.00
5930;DHT22;2990;48.746;9.236;2023-10-09T15:04:28;23.80;1.00
5930;DHT22;2990;48.746;9.236;2023-10-09T15:06:53;23.60;1.00
5930;DHT22;2990;48.746;9.236;2023-10-09T15:09:19;23.60;1.00
5930;DHT22;2990;48.746;9.236;2023-10-09T15:11:51;23.60;1.00
5930;DHT22;2990;48.746;9.236;2023-10-09T15:14:17;23.50;1.00
5930;DHT22;2990;48.746;9.236;2023-10-09T15:16:46;23.50;1.00
5930;DHT22;2990;48.746;9.236;2023-10-09T15:19:12;23.40;1.00
5930;DHT22;2990;48.746;9.236;2023-10-09T15:21:38;23.40;1.00
5930;DHT22;2990;48.746;9.236;2023-10-09T15:24:14;23.30;1.00
5930;DHT22;2990;48.746;9.236;2023-10-09T15:26:48;23.20;1.00
5930;DHT22;2990;48.746;9.236;2023-10-09T15:29:20;23.20;1.00
5930;DHT22;2990;48.746;9.236;2023-10-09T15:31:55;23.10;1.00
5930;DHT22;2990;48.746;9.236;2023-10-09T15:34:20;23.00;1.00
5930;DHT22;2990;48.746;9.236;2023-10-09T15:36:47;23.00;1.00
5930;DHT22;2990;48.746;9.236;2023-10-09T15:39:16;22.90;1.00
5930;DHT22;2990;48.746;9.236;2023-10-09T15:41:47;22.90;1.00
5930;DHT22;2990;48.746;9.236;2023-10-09T15:44:14;22.80;1.00
5930;DHT22;2990;48.746;9.236;2023-10-09T15:46:40;22.70;1.00
5930;DHT22;2990;48.746;9.236;2023-10-09T15:49:05;22.70;1.00
5930;DHT22;2990;48.746;9.236;2023-10-09T15:51:34;22.60;1.00
5930;DHT22;2990;48.746;9.236;2023-10-09T15:54:00;22.50;1.00
5930;DHT22;2990;48.746;9.236;2023-10-09T15:56:27;22.50;1.00
5930;DHT22;2990;48.746;9.236;2023-10-09T15:58:52;22.50;1.00
5930;DHT22;2990;48.746;9.236;2023-10-09T16:01:19;22.40;1.00
5930;DHT22;2990;48.746;9.236;2023-10-09T16:03:46;22.40;1.00
5930;DHT22;2990;48.746;9.236;2023-10-09T16:06:16;22.30;1.00
5930;DHT22;2990;48.746;9.236;2023-10-09T16:08:43;22.30;1.00
5930;DHT22;2990;48.746;9.236;2023-10-09T16:11:11;22.30;1.00
5930;DHT22;2990;48.746;9.236;2023-10-09T16:13:38;22.30;1.00
5930;DHT22;2990;48.746;9.236;2023-10-09T16:16:05;22.20;1.00
5930;DHT22;2990;48.746;9.236;2023-10-09T16:18:35;22.30;1.00
5930;DHT22;2990;48.746;9.236;2023-10-09T16:21:03;22.30;1.00
5930;DHT22;2990;48.746;9.236;2023-10-09T16:23:31;22.20;1.00
5930;DHT22;2990;48.746;9.236;2023-10-09T16:25:57;22.20;1.00
5930;DHT22;2990;48.746;9.236;2023-10-09T16:28:23;22.10;1.00
5930;DHT22;2990;48.746;9.236;2023-10-09T16:30:48;22.10;1.00
5930;DHT22;2990;48.746;9.236;2023-10-09T16:33:14;22.00;1.00
5930;DHT22;2990;48.746;9.236;2023-10-09T16:35:42;22.00;1.00
5930;DHT22;2990;48.746;9.236;2023-10-09T16:38:09;21.90;1.00
5930;DHT22;2990;48.746;9.236;2023-10-09T16:40:39;21.90;1.00
5930;DHT22;2990;48.746;9.236;2023-10-09T16:43:05;21.80;1.00
5930;DHT22;2990;48.746;9.236;2023-10-09T16:45:31;21.80;1.00
5930;DHT22;2990;48.746;9.236;2023-10-09T16:48:01;21.70;1.00
5930;DHT22;2990;48.746;9.236;2023-10-09T16:50:31;21.70;1.00
5930;DHT22;2990;48.746;9.236;2023-10-09T16:52:57;21.60;1.00
5930;DHT22;2990;48.746;9.236;2023-10-09T16:55:23;21.60;1.00
5930;DHT22;2990;48.746;9.236;2023-10-09T16:57:50;21.50;1.00
5930;DHT22;2990;48.746;9.236;2023-10-09T17:00:19;21.50;1.00
5930;DHT22;2990;48.746;9.236;2023-10-09T17:02:58;21.40;1.00
5930;DHT22;2990;48.746;9.236;2023-10-09T17:05:26;21.40;1.00
5930;DHT22;2990;48.746;9.236;2023-10-09T17:07:59;21.30;4.20
5930;DHT22;2990;48.746;9.236;2023-10-09T17:10:25;21.30;3.00